<?xml version="1.0" encoding="UTF-8" standalone="no" ?>
<gpx xmlns="http://www.topografix.com/GPX/1/1" xmlns:xsi="http://www.w3.org/2001/XMLSchema-instance" xsi:schemaLocation="http://www.topografix.com/GPX/1/1 http://www.topografix.com/GPX/1/1/gpx.xsd" version="1.1" creator="VisuGPX - https://www.visugpx.com">
  <metadata>
    <name>RocamadourOuest</name>
    <desc><![CDATA[En faire moins (8 km et 300m de dénivelé) : à la Croix du Crouzol, remonter (trace 2)]]></desc>
  </metadata>
  <wpt lat="44.79298" lon="1.5913">
    <ele>149.7</ele>
  </wpt>
  <trk>
    <name><![CDATA[RocamadourOuest]]></name>
    <trkseg>
      <trkpt lat="44.79985" lon="1.6161">
        <ele>262</ele>
        <time>2019-11-17T15:59:34Z</time>
      </trkpt>
      <trkpt lat="44.79985" lon="1.6161">
        <ele>262</ele>
        <time>2019-11-17T15:59:34Z</time>
      </trkpt>
      <trkpt lat="44.79954" lon="1.61617">
        <ele>261</ele>
        <time>2019-11-17T15:59:39Z</time>
      </trkpt>
      <trkpt lat="44.79917" lon="1.61605">
        <ele>260</ele>
        <time>2019-11-17T15:59:44Z</time>
      </trkpt>
      <trkpt lat="44.79904" lon="1.61612">
        <ele>256</ele>
        <time>2019-11-17T15:59:49Z</time>
      </trkpt>
      <trkpt lat="44.79881" lon="1.6162">
        <ele>247</ele>
        <time>2019-11-17T15:59:54Z</time>
      </trkpt>
      <trkpt lat="44.79866" lon="1.61623">
        <ele>241</ele>
        <time>2019-11-17T15:59:59Z</time>
      </trkpt>
      <trkpt lat="44.79845" lon="1.61622">
        <ele>234</ele>
        <time>2019-11-17T16:00:04Z</time>
      </trkpt>
      <trkpt lat="44.79839" lon="1.61606">
        <ele>237</ele>
        <time>2019-11-17T16:00:09Z</time>
      </trkpt>
      <trkpt lat="44.79834" lon="1.61582">
        <ele>244</ele>
        <time>2019-11-17T16:00:14Z</time>
      </trkpt>
      <trkpt lat="44.79823" lon="1.61571">
        <ele>238</ele>
        <time>2019-11-17T16:00:19Z</time>
      </trkpt>
      <trkpt lat="44.79815" lon="1.61549">
        <ele>235</ele>
        <time>2019-11-17T16:00:24Z</time>
      </trkpt>
      <trkpt lat="44.79813" lon="1.61537">
        <ele>236</ele>
        <time>2019-11-17T16:00:29Z</time>
      </trkpt>
      <trkpt lat="44.79813" lon="1.61516">
        <ele>239</ele>
        <time>2019-11-17T16:00:34Z</time>
      </trkpt>
      <trkpt lat="44.79808" lon="1.615">
        <ele>239</ele>
        <time>2019-11-17T16:00:39Z</time>
      </trkpt>
      <trkpt lat="44.79797" lon="1.61489">
        <ele>234</ele>
        <time>2019-11-17T16:00:44Z</time>
      </trkpt>
      <trkpt lat="44.79789" lon="1.61476">
        <ele>231</ele>
        <time>2019-11-17T16:00:49Z</time>
      </trkpt>
      <trkpt lat="44.7978" lon="1.61462">
        <ele>228</ele>
        <time>2019-11-17T16:00:54Z</time>
      </trkpt>
      <trkpt lat="44.79771" lon="1.61444">
        <ele>225</ele>
        <time>2019-11-17T16:00:59Z</time>
      </trkpt>
      <trkpt lat="44.79758" lon="1.61414">
        <ele>222</ele>
        <time>2019-11-17T16:01:04Z</time>
      </trkpt>
      <trkpt lat="44.7975" lon="1.61417">
        <ele>219</ele>
        <time>2019-11-17T16:01:09Z</time>
      </trkpt>
      <trkpt lat="44.79749" lon="1.61406">
        <ele>217</ele>
        <time>2019-11-17T16:01:14Z</time>
      </trkpt>
      <trkpt lat="44.7975" lon="1.61406">
        <ele>219</ele>
        <time>2019-11-17T16:01:19Z</time>
      </trkpt>
      <trkpt lat="44.79753" lon="1.61385">
        <ele>216</ele>
        <time>2019-11-17T16:01:24Z</time>
      </trkpt>
      <trkpt lat="44.79756" lon="1.61369">
        <ele>215</ele>
        <time>2019-11-17T16:01:29Z</time>
      </trkpt>
      <trkpt lat="44.7976" lon="1.61359">
        <ele>215</ele>
        <time>2019-11-17T16:01:34Z</time>
      </trkpt>
      <trkpt lat="44.79765" lon="1.61351">
        <ele>216</ele>
        <time>2019-11-17T16:01:39Z</time>
      </trkpt>
      <trkpt lat="44.7977" lon="1.61337">
        <ele>216</ele>
        <time>2019-11-17T16:01:44Z</time>
      </trkpt>
      <trkpt lat="44.79774" lon="1.61328">
        <ele>216</ele>
        <time>2019-11-17T16:01:49Z</time>
      </trkpt>
      <trkpt lat="44.79782" lon="1.61313">
        <ele>217</ele>
        <time>2019-11-17T16:01:54Z</time>
      </trkpt>
      <trkpt lat="44.7979" lon="1.61292">
        <ele>217</ele>
        <time>2019-11-17T16:01:59Z</time>
      </trkpt>
      <trkpt lat="44.79798" lon="1.61269">
        <ele>217</ele>
        <time>2019-11-17T16:02:04Z</time>
      </trkpt>
      <trkpt lat="44.798" lon="1.61256">
        <ele>216</ele>
        <time>2019-11-17T16:02:09Z</time>
      </trkpt>
      <trkpt lat="44.79802" lon="1.61239">
        <ele>214</ele>
        <time>2019-11-17T16:02:14Z</time>
      </trkpt>
      <trkpt lat="44.79802" lon="1.61227">
        <ele>213</ele>
        <time>2019-11-17T16:02:19Z</time>
      </trkpt>
      <trkpt lat="44.79804" lon="1.61215">
        <ele>212</ele>
        <time>2019-11-17T16:02:24Z</time>
      </trkpt>
      <trkpt lat="44.79804" lon="1.612">
        <ele>209</ele>
        <time>2019-11-17T16:02:29Z</time>
      </trkpt>
      <trkpt lat="44.79809" lon="1.61188">
        <ele>210</ele>
        <time>2019-11-17T16:02:34Z</time>
      </trkpt>
      <trkpt lat="44.79816" lon="1.6117">
        <ele>211</ele>
        <time>2019-11-17T16:02:39Z</time>
      </trkpt>
      <trkpt lat="44.79822" lon="1.61158">
        <ele>212</ele>
        <time>2019-11-17T16:02:44Z</time>
      </trkpt>
      <trkpt lat="44.79833" lon="1.6114">
        <ele>214</ele>
        <time>2019-11-17T16:02:49Z</time>
      </trkpt>
      <trkpt lat="44.79846" lon="1.61129">
        <ele>214</ele>
        <time>2019-11-17T16:02:54Z</time>
      </trkpt>
      <trkpt lat="44.79865" lon="1.61115">
        <ele>214</ele>
        <time>2019-11-17T16:02:59Z</time>
      </trkpt>
      <trkpt lat="44.79877" lon="1.6111">
        <ele>215</ele>
        <time>2019-11-17T16:03:04Z</time>
      </trkpt>
      <trkpt lat="44.79886" lon="1.6111">
        <ele>217</ele>
        <time>2019-11-17T16:03:09Z</time>
      </trkpt>
      <trkpt lat="44.79909" lon="1.61118">
        <ele>222</ele>
        <time>2019-11-17T16:03:14Z</time>
      </trkpt>
      <trkpt lat="44.79916" lon="1.61114">
        <ele>223</ele>
        <time>2019-11-17T16:03:19Z</time>
      </trkpt>
      <trkpt lat="44.79926" lon="1.61102">
        <ele>223</ele>
        <time>2019-11-17T16:03:24Z</time>
      </trkpt>
      <trkpt lat="44.79931" lon="1.6109">
        <ele>222</ele>
        <time>2019-11-17T16:03:29Z</time>
      </trkpt>
      <trkpt lat="44.79928" lon="1.61081">
        <ele>220</ele>
        <time>2019-11-17T16:03:34Z</time>
      </trkpt>
      <trkpt lat="44.79925" lon="1.61069">
        <ele>219</ele>
        <time>2019-11-17T16:03:39Z</time>
      </trkpt>
      <trkpt lat="44.79925" lon="1.61053">
        <ele>218</ele>
        <time>2019-11-17T16:03:44Z</time>
      </trkpt>
      <trkpt lat="44.79927" lon="1.61044">
        <ele>217</ele>
        <time>2019-11-17T16:03:49Z</time>
      </trkpt>
      <trkpt lat="44.79926" lon="1.61034">
        <ele>216</ele>
        <time>2019-11-17T16:03:54Z</time>
      </trkpt>
      <trkpt lat="44.79927" lon="1.61022">
        <ele>216</ele>
        <time>2019-11-17T16:03:59Z</time>
      </trkpt>
      <trkpt lat="44.79924" lon="1.61007">
        <ele>214</ele>
        <time>2019-11-17T16:04:04Z</time>
      </trkpt>
      <trkpt lat="44.79924" lon="1.60994">
        <ele>214</ele>
        <time>2019-11-17T16:04:09Z</time>
      </trkpt>
      <trkpt lat="44.79926" lon="1.60977">
        <ele>214</ele>
        <time>2019-11-17T16:04:14Z</time>
      </trkpt>
      <trkpt lat="44.7993" lon="1.60955">
        <ele>216</ele>
        <time>2019-11-17T16:04:19Z</time>
      </trkpt>
      <trkpt lat="44.79935" lon="1.60933">
        <ele>217</ele>
        <time>2019-11-17T16:04:24Z</time>
      </trkpt>
      <trkpt lat="44.79943" lon="1.60915">
        <ele>218</ele>
        <time>2019-11-17T16:04:29Z</time>
      </trkpt>
      <trkpt lat="44.79941" lon="1.60905">
        <ele>219</ele>
        <time>2019-11-17T16:04:34Z</time>
      </trkpt>
      <trkpt lat="44.79937" lon="1.60891">
        <ele>220</ele>
        <time>2019-11-17T16:04:39Z</time>
      </trkpt>
      <trkpt lat="44.79934" lon="1.60882">
        <ele>220</ele>
        <time>2019-11-17T16:04:44Z</time>
      </trkpt>
      <trkpt lat="44.79932" lon="1.60868">
        <ele>221</ele>
        <time>2019-11-17T16:04:49Z</time>
      </trkpt>
      <trkpt lat="44.79926" lon="1.60846">
        <ele>223</ele>
        <time>2019-11-17T16:04:54Z</time>
      </trkpt>
      <trkpt lat="44.79922" lon="1.60814">
        <ele>226</ele>
        <time>2019-11-17T16:04:59Z</time>
      </trkpt>
      <trkpt lat="44.79919" lon="1.60788">
        <ele>229</ele>
        <time>2019-11-17T16:05:04Z</time>
      </trkpt>
      <trkpt lat="44.79919" lon="1.60761">
        <ele>233</ele>
        <time>2019-11-17T16:05:09Z</time>
      </trkpt>
      <trkpt lat="44.7992" lon="1.60751">
        <ele>234</ele>
        <time>2019-11-17T16:05:14Z</time>
      </trkpt>
      <trkpt lat="44.79921" lon="1.60721">
        <ele>236</ele>
        <time>2019-11-17T16:05:19Z</time>
      </trkpt>
      <trkpt lat="44.79925" lon="1.607">
        <ele>238</ele>
        <time>2019-11-17T16:05:24Z</time>
      </trkpt>
      <trkpt lat="44.79927" lon="1.60677">
        <ele>240</ele>
        <time>2019-11-17T16:05:29Z</time>
      </trkpt>
      <trkpt lat="44.79932" lon="1.60666">
        <ele>241</ele>
        <time>2019-11-17T16:05:34Z</time>
      </trkpt>
      <trkpt lat="44.79938" lon="1.60646">
        <ele>242</ele>
        <time>2019-11-17T16:05:39Z</time>
      </trkpt>
      <trkpt lat="44.79946" lon="1.60626">
        <ele>242</ele>
        <time>2019-11-17T16:05:44Z</time>
      </trkpt>
      <trkpt lat="44.79954" lon="1.60611">
        <ele>243</ele>
        <time>2019-11-17T16:05:49Z</time>
      </trkpt>
      <trkpt lat="44.79959" lon="1.60601">
        <ele>244</ele>
        <time>2019-11-17T16:05:54Z</time>
      </trkpt>
      <trkpt lat="44.79968" lon="1.60585">
        <ele>245</ele>
        <time>2019-11-17T16:05:59Z</time>
      </trkpt>
      <trkpt lat="44.79975" lon="1.60571">
        <ele>246</ele>
        <time>2019-11-17T16:06:04Z</time>
      </trkpt>
      <trkpt lat="44.79978" lon="1.60551">
        <ele>247</ele>
        <time>2019-11-17T16:06:09Z</time>
      </trkpt>
      <trkpt lat="44.7998" lon="1.60534">
        <ele>248</ele>
        <time>2019-11-17T16:06:14Z</time>
      </trkpt>
      <trkpt lat="44.79986" lon="1.60513">
        <ele>250</ele>
        <time>2019-11-17T16:06:19Z</time>
      </trkpt>
      <trkpt lat="44.79993" lon="1.60497">
        <ele>251</ele>
        <time>2019-11-17T16:06:24Z</time>
      </trkpt>
      <trkpt lat="44.8" lon="1.60473">
        <ele>251</ele>
        <time>2019-11-17T16:06:29Z</time>
      </trkpt>
      <trkpt lat="44.80007" lon="1.60447">
        <ele>253</ele>
        <time>2019-11-17T16:06:34Z</time>
      </trkpt>
      <trkpt lat="44.80012" lon="1.60433">
        <ele>254</ele>
        <time>2019-11-17T16:06:39Z</time>
      </trkpt>
      <trkpt lat="44.8002" lon="1.60414">
        <ele>255</ele>
        <time>2019-11-17T16:06:44Z</time>
      </trkpt>
      <trkpt lat="44.80027" lon="1.60381">
        <ele>256</ele>
        <time>2019-11-17T16:06:49Z</time>
      </trkpt>
      <trkpt lat="44.80035" lon="1.60362">
        <ele>257</ele>
        <time>2019-11-17T16:06:54Z</time>
      </trkpt>
      <trkpt lat="44.80054" lon="1.60301">
        <ele>258</ele>
        <time>2019-11-17T16:06:59Z</time>
      </trkpt>
      <trkpt lat="44.80059" lon="1.60274">
        <ele>258</ele>
        <time>2019-11-17T16:07:04Z</time>
      </trkpt>
      <trkpt lat="44.80069" lon="1.60212">
        <ele>258</ele>
        <time>2019-11-17T16:07:09Z</time>
      </trkpt>
      <trkpt lat="44.80075" lon="1.60184">
        <ele>258</ele>
        <time>2019-11-17T16:07:14Z</time>
      </trkpt>
      <trkpt lat="44.80078" lon="1.60172">
        <ele>258</ele>
        <time>2019-11-17T16:07:19Z</time>
      </trkpt>
      <trkpt lat="44.80083" lon="1.60161">
        <ele>258</ele>
        <time>2019-11-17T16:07:24Z</time>
      </trkpt>
      <trkpt lat="44.80091" lon="1.6015">
        <ele>258</ele>
        <time>2019-11-17T16:07:29Z</time>
      </trkpt>
      <trkpt lat="44.80103" lon="1.60128">
        <ele>257</ele>
        <time>2019-11-17T16:07:34Z</time>
      </trkpt>
      <trkpt lat="44.80157" lon="1.60038">
        <ele>255</ele>
        <time>2019-11-17T16:07:39Z</time>
      </trkpt>
      <trkpt lat="44.80174" lon="1.60008">
        <ele>254</ele>
        <time>2019-11-17T16:07:44Z</time>
      </trkpt>
      <trkpt lat="44.80188" lon="1.59985">
        <ele>255</ele>
        <time>2019-11-17T16:07:49Z</time>
      </trkpt>
      <trkpt lat="44.802" lon="1.59967">
        <ele>255</ele>
        <time>2019-11-17T16:07:54Z</time>
      </trkpt>
      <trkpt lat="44.80208" lon="1.59952">
        <ele>255</ele>
        <time>2019-11-17T16:07:59Z</time>
      </trkpt>
      <trkpt lat="44.80245" lon="1.59887">
        <ele>256</ele>
        <time>2019-11-17T16:08:04Z</time>
      </trkpt>
      <trkpt lat="44.80253" lon="1.59867">
        <ele>257</ele>
        <time>2019-11-17T16:08:09Z</time>
      </trkpt>
      <trkpt lat="44.80268" lon="1.59816">
        <ele>258</ele>
        <time>2019-11-17T16:08:14Z</time>
      </trkpt>
      <trkpt lat="44.80323" lon="1.59691">
        <ele>263</ele>
        <time>2019-11-17T16:08:19Z</time>
      </trkpt>
      <trkpt lat="44.80339" lon="1.59657">
        <ele>264</ele>
        <time>2019-11-17T16:08:24Z</time>
      </trkpt>
      <trkpt lat="44.80354" lon="1.5963">
        <ele>265</ele>
        <time>2019-11-17T16:08:29Z</time>
      </trkpt>
      <trkpt lat="44.80385" lon="1.59586">
        <ele>266</ele>
        <time>2019-11-17T16:08:34Z</time>
      </trkpt>
      <trkpt lat="44.80401" lon="1.5957">
        <ele>266</ele>
        <time>2019-11-17T16:08:39Z</time>
      </trkpt>
      <trkpt lat="44.80433" lon="1.59538">
        <ele>265</ele>
        <time>2019-11-17T16:08:44Z</time>
      </trkpt>
      <trkpt lat="44.80448" lon="1.5952">
        <ele>264</ele>
        <time>2019-11-17T16:08:49Z</time>
      </trkpt>
      <trkpt lat="44.80464" lon="1.59508">
        <ele>264</ele>
        <time>2019-11-17T16:08:54Z</time>
      </trkpt>
      <trkpt lat="44.80488" lon="1.59487">
        <ele>262</ele>
        <time>2019-11-17T16:08:59Z</time>
      </trkpt>
      <trkpt lat="44.80505" lon="1.59469">
        <ele>261</ele>
        <time>2019-11-17T16:09:04Z</time>
      </trkpt>
      <trkpt lat="44.80518" lon="1.5945">
        <ele>259</ele>
        <time>2019-11-17T16:09:09Z</time>
      </trkpt>
      <trkpt lat="44.8053" lon="1.59431">
        <ele>258</ele>
        <time>2019-11-17T16:09:14Z</time>
      </trkpt>
      <trkpt lat="44.8054" lon="1.59409">
        <ele>256</ele>
        <time>2019-11-17T16:09:19Z</time>
      </trkpt>
      <trkpt lat="44.8055" lon="1.59392">
        <ele>255</ele>
        <time>2019-11-17T16:09:24Z</time>
      </trkpt>
      <trkpt lat="44.80566" lon="1.59372">
        <ele>254</ele>
        <time>2019-11-17T16:09:29Z</time>
      </trkpt>
      <trkpt lat="44.80576" lon="1.59333">
        <ele>252</ele>
        <time>2019-11-17T16:09:34Z</time>
      </trkpt>
      <trkpt lat="44.80583" lon="1.59286">
        <ele>248</ele>
        <time>2019-11-17T16:09:39Z</time>
      </trkpt>
      <trkpt lat="44.80589" lon="1.59257">
        <ele>245</ele>
        <time>2019-11-17T16:09:44Z</time>
      </trkpt>
      <trkpt lat="44.80593" lon="1.59224">
        <ele>243</ele>
        <time>2019-11-17T16:09:49Z</time>
      </trkpt>
      <trkpt lat="44.80605" lon="1.5916">
        <ele>237</ele>
        <time>2019-11-17T16:09:54Z</time>
      </trkpt>
      <trkpt lat="44.80607" lon="1.59123">
        <ele>233</ele>
        <time>2019-11-17T16:09:59Z</time>
      </trkpt>
      <trkpt lat="44.80605" lon="1.59108">
        <ele>232</ele>
        <time>2019-11-17T16:10:04Z</time>
      </trkpt>
      <trkpt lat="44.80614" lon="1.59093">
        <ele>229</ele>
        <time>2019-11-17T16:10:09Z</time>
      </trkpt>
      <trkpt lat="44.80629" lon="1.59066">
        <ele>222</ele>
        <time>2019-11-17T16:10:14Z</time>
      </trkpt>
      <trkpt lat="44.80649" lon="1.59037">
        <ele>213</ele>
        <time>2019-11-17T16:10:19Z</time>
      </trkpt>
      <trkpt lat="44.80682" lon="1.59025">
        <ele>205</ele>
        <time>2019-11-17T16:10:24Z</time>
      </trkpt>
      <trkpt lat="44.80707" lon="1.59034">
        <ele>202</ele>
        <time>2019-11-17T16:10:29Z</time>
      </trkpt>
      <trkpt lat="44.80734" lon="1.59055">
        <ele>199</ele>
        <time>2019-11-17T16:10:34Z</time>
      </trkpt>
      <trkpt lat="44.80744" lon="1.59064">
        <ele>197</ele>
        <time>2019-11-17T16:10:39Z</time>
      </trkpt>
      <trkpt lat="44.8075" lon="1.5906">
        <ele>198</ele>
        <time>2019-11-17T16:10:44Z</time>
      </trkpt>
      <trkpt lat="44.80754" lon="1.59038">
        <ele>192</ele>
        <time>2019-11-17T16:10:49Z</time>
      </trkpt>
      <trkpt lat="44.80756" lon="1.59018">
        <ele>189</ele>
        <time>2019-11-17T16:10:54Z</time>
      </trkpt>
      <trkpt lat="44.80753" lon="1.59001">
        <ele>188</ele>
        <time>2019-11-17T16:10:59Z</time>
      </trkpt>
      <trkpt lat="44.80745" lon="1.58975">
        <ele>185</ele>
        <time>2019-11-17T16:11:04Z</time>
      </trkpt>
      <trkpt lat="44.80734" lon="1.58951">
        <ele>182</ele>
        <time>2019-11-17T16:11:09Z</time>
      </trkpt>
      <trkpt lat="44.8072" lon="1.58933">
        <ele>180</ele>
        <time>2019-11-17T16:11:14Z</time>
      </trkpt>
      <trkpt lat="44.80709" lon="1.58922">
        <ele>179</ele>
        <time>2019-11-17T16:11:19Z</time>
      </trkpt>
      <trkpt lat="44.80691" lon="1.58911">
        <ele>178</ele>
        <time>2019-11-17T16:11:24Z</time>
      </trkpt>
      <trkpt lat="44.80684" lon="1.58905">
        <ele>178</ele>
        <time>2019-11-17T16:11:29Z</time>
      </trkpt>
      <trkpt lat="44.80671" lon="1.58897">
        <ele>177</ele>
        <time>2019-11-17T16:11:34Z</time>
      </trkpt>
      <trkpt lat="44.8066" lon="1.58886">
        <ele>175</ele>
        <time>2019-11-17T16:11:39Z</time>
      </trkpt>
      <trkpt lat="44.80648" lon="1.5888">
        <ele>174</ele>
        <time>2019-11-17T16:11:44Z</time>
      </trkpt>
      <trkpt lat="44.80634" lon="1.58875">
        <ele>173</ele>
        <time>2019-11-17T16:11:49Z</time>
      </trkpt>
      <trkpt lat="44.80625" lon="1.58871">
        <ele>172</ele>
        <time>2019-11-17T16:11:54Z</time>
      </trkpt>
      <trkpt lat="44.80616" lon="1.58868">
        <ele>171</ele>
        <time>2019-11-17T16:11:59Z</time>
      </trkpt>
      <trkpt lat="44.80602" lon="1.5887">
        <ele>171</ele>
        <time>2019-11-17T16:12:04Z</time>
      </trkpt>
      <trkpt lat="44.80595" lon="1.58874">
        <ele>172</ele>
        <time>2019-11-17T16:12:09Z</time>
      </trkpt>
      <trkpt lat="44.80589" lon="1.58874">
        <ele>172</ele>
        <time>2019-11-17T16:12:14Z</time>
      </trkpt>
      <trkpt lat="44.80586" lon="1.58855">
        <ele>167</ele>
        <time>2019-11-17T16:12:19Z</time>
      </trkpt>
      <trkpt lat="44.80584" lon="1.58834">
        <ele>161</ele>
        <time>2019-11-17T16:12:24Z</time>
      </trkpt>
      <trkpt lat="44.80582" lon="1.5882">
        <ele>164</ele>
        <time>2019-11-17T16:12:29Z</time>
      </trkpt>
      <trkpt lat="44.8058" lon="1.58813">
        <ele>165</ele>
        <time>2019-11-17T16:12:34Z</time>
      </trkpt>
      <trkpt lat="44.80575" lon="1.58809">
        <ele>166</ele>
        <time>2019-11-17T16:12:39Z</time>
      </trkpt>
      <trkpt lat="44.8056" lon="1.58806">
        <ele>165</ele>
        <time>2019-11-17T16:12:44Z</time>
      </trkpt>
      <trkpt lat="44.80539" lon="1.58797">
        <ele>165</ele>
        <time>2019-11-17T16:12:49Z</time>
      </trkpt>
      <trkpt lat="44.80523" lon="1.58784">
        <ele>165</ele>
        <time>2019-11-17T16:12:54Z</time>
      </trkpt>
      <trkpt lat="44.80496" lon="1.58764">
        <ele>163</ele>
        <time>2019-11-17T16:12:59Z</time>
      </trkpt>
      <trkpt lat="44.80483" lon="1.5875">
        <ele>164</ele>
        <time>2019-11-17T16:13:04Z</time>
      </trkpt>
      <trkpt lat="44.80473" lon="1.58733">
        <ele>166</ele>
        <time>2019-11-17T16:13:09Z</time>
      </trkpt>
      <trkpt lat="44.80455" lon="1.58701">
        <ele>170</ele>
        <time>2019-11-17T16:13:14Z</time>
      </trkpt>
      <trkpt lat="44.80432" lon="1.58674">
        <ele>170</ele>
        <time>2019-11-17T16:13:19Z</time>
      </trkpt>
      <trkpt lat="44.80403" lon="1.58642">
        <ele>171</ele>
        <time>2019-11-17T16:13:24Z</time>
      </trkpt>
      <trkpt lat="44.80394" lon="1.58633">
        <ele>171</ele>
        <time>2019-11-17T16:13:29Z</time>
      </trkpt>
      <trkpt lat="44.80373" lon="1.58602">
        <ele>173</ele>
        <time>2019-11-17T16:13:34Z</time>
      </trkpt>
      <trkpt lat="44.80363" lon="1.58586">
        <ele>173</ele>
        <time>2019-11-17T16:13:39Z</time>
      </trkpt>
      <trkpt lat="44.80356" lon="1.5857">
        <ele>176</ele>
        <time>2019-11-17T16:13:44Z</time>
      </trkpt>
      <trkpt lat="44.80351" lon="1.58564">
        <ele>176</ele>
        <time>2019-11-17T16:13:49Z</time>
      </trkpt>
      <trkpt lat="44.8034" lon="1.58555">
        <ele>176</ele>
        <time>2019-11-17T16:13:54Z</time>
      </trkpt>
      <trkpt lat="44.80322" lon="1.58543">
        <ele>177</ele>
        <time>2019-11-17T16:13:59Z</time>
      </trkpt>
      <trkpt lat="44.803" lon="1.58535">
        <ele>177</ele>
        <time>2019-11-17T16:14:04Z</time>
      </trkpt>
      <trkpt lat="44.8028" lon="1.58524">
        <ele>178</ele>
        <time>2019-11-17T16:14:09Z</time>
      </trkpt>
      <trkpt lat="44.80266" lon="1.58514">
        <ele>180</ele>
        <time>2019-11-17T16:14:14Z</time>
      </trkpt>
      <trkpt lat="44.80254" lon="1.58508">
        <ele>181</ele>
        <time>2019-11-17T16:14:19Z</time>
      </trkpt>
      <trkpt lat="44.80229" lon="1.58499">
        <ele>181</ele>
        <time>2019-11-17T16:14:24Z</time>
      </trkpt>
      <trkpt lat="44.80205" lon="1.58486">
        <ele>181</ele>
        <time>2019-11-17T16:14:29Z</time>
      </trkpt>
      <trkpt lat="44.80178" lon="1.58466">
        <ele>183</ele>
        <time>2019-11-17T16:14:34Z</time>
      </trkpt>
      <trkpt lat="44.80169" lon="1.58458">
        <ele>183</ele>
        <time>2019-11-17T16:14:39Z</time>
      </trkpt>
      <trkpt lat="44.80158" lon="1.58451">
        <ele>184</ele>
        <time>2019-11-17T16:14:44Z</time>
      </trkpt>
      <trkpt lat="44.80143" lon="1.58436">
        <ele>186</ele>
        <time>2019-11-17T16:14:49Z</time>
      </trkpt>
      <trkpt lat="44.8013" lon="1.58419">
        <ele>188</ele>
        <time>2019-11-17T16:14:54Z</time>
      </trkpt>
      <trkpt lat="44.80127" lon="1.58403">
        <ele>189</ele>
        <time>2019-11-17T16:14:59Z</time>
      </trkpt>
      <trkpt lat="44.80111" lon="1.584">
        <ele>187</ele>
        <time>2019-11-17T16:15:04Z</time>
      </trkpt>
      <trkpt lat="44.80094" lon="1.58391">
        <ele>185</ele>
        <time>2019-11-17T16:15:09Z</time>
      </trkpt>
      <trkpt lat="44.80077" lon="1.58377">
        <ele>182</ele>
        <time>2019-11-17T16:15:14Z</time>
      </trkpt>
      <trkpt lat="44.80061" lon="1.58361">
        <ele>180</ele>
        <time>2019-11-17T16:15:19Z</time>
      </trkpt>
      <trkpt lat="44.80048" lon="1.58336">
        <ele>177</ele>
        <time>2019-11-17T16:15:24Z</time>
      </trkpt>
      <trkpt lat="44.80038" lon="1.58318">
        <ele>174</ele>
        <time>2019-11-17T16:15:29Z</time>
      </trkpt>
      <trkpt lat="44.80031" lon="1.58298">
        <ele>171</ele>
        <time>2019-11-17T16:15:34Z</time>
      </trkpt>
      <trkpt lat="44.8003" lon="1.58274">
        <ele>169</ele>
        <time>2019-11-17T16:15:39Z</time>
      </trkpt>
      <trkpt lat="44.80028" lon="1.58243">
        <ele>167</ele>
        <time>2019-11-17T16:15:44Z</time>
      </trkpt>
      <trkpt lat="44.80025" lon="1.58213">
        <ele>163</ele>
        <time>2019-11-17T16:15:49Z</time>
      </trkpt>
      <trkpt lat="44.80029" lon="1.58181">
        <ele>161</ele>
        <time>2019-11-17T16:15:54Z</time>
      </trkpt>
      <trkpt lat="44.80032" lon="1.5815">
        <ele>159</ele>
        <time>2019-11-17T16:15:59Z</time>
      </trkpt>
      <trkpt lat="44.80038" lon="1.58112">
        <ele>156</ele>
        <time>2019-11-17T16:16:04Z</time>
      </trkpt>
      <trkpt lat="44.80042" lon="1.58069">
        <ele>152</ele>
        <time>2019-11-17T16:16:09Z</time>
      </trkpt>
      <trkpt lat="44.80041" lon="1.58052">
        <ele>149</ele>
        <time>2019-11-17T16:16:14Z</time>
      </trkpt>
      <trkpt lat="44.80044" lon="1.58026">
        <ele>146</ele>
        <time>2019-11-17T16:16:19Z</time>
      </trkpt>
      <trkpt lat="44.80045" lon="1.58006">
        <ele>144</ele>
        <time>2019-11-17T16:16:24Z</time>
      </trkpt>
      <trkpt lat="44.80042" lon="1.57995">
        <ele>142</ele>
        <time>2019-11-17T16:16:29Z</time>
      </trkpt>
      <trkpt lat="44.80044" lon="1.57985">
        <ele>142</ele>
        <time>2019-11-17T16:16:34Z</time>
      </trkpt>
      <trkpt lat="44.80042" lon="1.57971">
        <ele>140</ele>
        <time>2019-11-17T16:16:39Z</time>
      </trkpt>
      <trkpt lat="44.80038" lon="1.57963">
        <ele>139</ele>
        <time>2019-11-17T16:16:44Z</time>
      </trkpt>
      <trkpt lat="44.80042" lon="1.57953">
        <ele>139</ele>
        <time>2019-11-17T16:16:49Z</time>
      </trkpt>
      <trkpt lat="44.80045" lon="1.57939">
        <ele>139</ele>
        <time>2019-11-17T16:16:54Z</time>
      </trkpt>
      <trkpt lat="44.80049" lon="1.57927">
        <ele>139</ele>
        <time>2019-11-17T16:16:59Z</time>
      </trkpt>
      <trkpt lat="44.80051" lon="1.57916">
        <ele>139</ele>
        <time>2019-11-17T16:17:04Z</time>
      </trkpt>
      <trkpt lat="44.80055" lon="1.57903">
        <ele>140</ele>
        <time>2019-11-17T16:17:09Z</time>
      </trkpt>
      <trkpt lat="44.80044" lon="1.57871">
        <ele>137</ele>
        <time>2019-11-17T16:17:14Z</time>
      </trkpt>
      <trkpt lat="44.80039" lon="1.57844">
        <ele>135</ele>
        <time>2019-11-17T16:17:19Z</time>
      </trkpt>
      <trkpt lat="44.80036" lon="1.57818">
        <ele>133</ele>
        <time>2019-11-17T16:17:24Z</time>
      </trkpt>
      <trkpt lat="44.80029" lon="1.57793">
        <ele>131</ele>
        <time>2019-11-17T16:17:29Z</time>
      </trkpt>
      <trkpt lat="44.80023" lon="1.57774">
        <ele>129</ele>
        <time>2019-11-17T16:17:34Z</time>
      </trkpt>
      <trkpt lat="44.80014" lon="1.57742">
        <ele>125</ele>
        <time>2019-11-17T16:17:39Z</time>
      </trkpt>
      <trkpt lat="44.80008" lon="1.57725">
        <ele>123</ele>
        <time>2019-11-17T16:17:44Z</time>
      </trkpt>
      <trkpt lat="44.79996" lon="1.57713">
        <ele>122</ele>
        <time>2019-11-17T16:17:49Z</time>
      </trkpt>
      <trkpt lat="44.79986" lon="1.57694">
        <ele>123</ele>
        <time>2019-11-17T16:17:54Z</time>
      </trkpt>
      <trkpt lat="44.79987" lon="1.57672">
        <ele>122</ele>
        <time>2019-11-17T16:17:59Z</time>
      </trkpt>
      <trkpt lat="44.79992" lon="1.57662">
        <ele>122</ele>
        <time>2019-11-17T16:18:04Z</time>
      </trkpt>
      <trkpt lat="44.79998" lon="1.57652">
        <ele>121</ele>
        <time>2019-11-17T16:18:09Z</time>
      </trkpt>
      <trkpt lat="44.80014" lon="1.5763">
        <ele>124</ele>
        <time>2019-11-17T16:18:14Z</time>
      </trkpt>
      <trkpt lat="44.80026" lon="1.57608">
        <ele>125</ele>
        <time>2019-11-17T16:18:19Z</time>
      </trkpt>
      <trkpt lat="44.80035" lon="1.57582">
        <ele>125</ele>
        <time>2019-11-17T16:18:24Z</time>
      </trkpt>
      <trkpt lat="44.80039" lon="1.57562">
        <ele>125</ele>
        <time>2019-11-17T16:18:29Z</time>
      </trkpt>
      <trkpt lat="44.80041" lon="1.57546">
        <ele>124</ele>
        <time>2019-11-17T16:18:34Z</time>
      </trkpt>
      <trkpt lat="44.80039" lon="1.57524">
        <ele>124</ele>
        <time>2019-11-17T16:18:39Z</time>
      </trkpt>
      <trkpt lat="44.80038" lon="1.57497">
        <ele>124</ele>
        <time>2019-11-17T16:18:44Z</time>
      </trkpt>
      <trkpt lat="44.80038" lon="1.57476">
        <ele>123</ele>
        <time>2019-11-17T16:18:49Z</time>
      </trkpt>
      <trkpt lat="44.80033" lon="1.57462">
        <ele>123</ele>
        <time>2019-11-17T16:18:54Z</time>
      </trkpt>
      <trkpt lat="44.80024" lon="1.57463">
        <ele>124</ele>
        <time>2019-11-17T16:18:59Z</time>
      </trkpt>
      <trkpt lat="44.80016" lon="1.57472">
        <ele>125</ele>
        <time>2019-11-17T16:19:04Z</time>
      </trkpt>
      <trkpt lat="44.79999" lon="1.57487">
        <ele>127</ele>
        <time>2019-11-17T16:19:09Z</time>
      </trkpt>
      <trkpt lat="44.79986" lon="1.57509">
        <ele>128</ele>
        <time>2019-11-17T16:19:14Z</time>
      </trkpt>
      <trkpt lat="44.79975" lon="1.57518">
        <ele>128</ele>
        <time>2019-11-17T16:19:19Z</time>
      </trkpt>
      <trkpt lat="44.7996" lon="1.57523">
        <ele>129</ele>
        <time>2019-11-17T16:19:24Z</time>
      </trkpt>
      <trkpt lat="44.79927" lon="1.57527">
        <ele>131</ele>
        <time>2019-11-17T16:19:29Z</time>
      </trkpt>
      <trkpt lat="44.79907" lon="1.57521">
        <ele>132</ele>
        <time>2019-11-17T16:19:34Z</time>
      </trkpt>
      <trkpt lat="44.79893" lon="1.57513">
        <ele>132</ele>
        <time>2019-11-17T16:19:39Z</time>
      </trkpt>
      <trkpt lat="44.79864" lon="1.57499">
        <ele>131</ele>
        <time>2019-11-17T16:19:44Z</time>
      </trkpt>
      <trkpt lat="44.79847" lon="1.57492">
        <ele>131</ele>
        <time>2019-11-17T16:19:49Z</time>
      </trkpt>
      <trkpt lat="44.79826" lon="1.57485">
        <ele>132</ele>
        <time>2019-11-17T16:19:54Z</time>
      </trkpt>
      <trkpt lat="44.79808" lon="1.57477">
        <ele>135</ele>
        <time>2019-11-17T16:19:59Z</time>
      </trkpt>
      <trkpt lat="44.7979" lon="1.57468">
        <ele>138</ele>
        <time>2019-11-17T16:20:04Z</time>
      </trkpt>
      <trkpt lat="44.79777" lon="1.57463">
        <ele>141</ele>
        <time>2019-11-17T16:20:09Z</time>
      </trkpt>
      <trkpt lat="44.7976" lon="1.57459">
        <ele>144</ele>
        <time>2019-11-17T16:20:14Z</time>
      </trkpt>
      <trkpt lat="44.79743" lon="1.57451">
        <ele>148</ele>
        <time>2019-11-17T16:20:19Z</time>
      </trkpt>
      <trkpt lat="44.79734" lon="1.57446">
        <ele>152</ele>
        <time>2019-11-17T16:20:24Z</time>
      </trkpt>
      <trkpt lat="44.79727" lon="1.57419">
        <ele>155</ele>
        <time>2019-11-17T16:20:29Z</time>
      </trkpt>
      <trkpt lat="44.79725" lon="1.57402">
        <ele>157</ele>
        <time>2019-11-17T16:20:34Z</time>
      </trkpt>
      <trkpt lat="44.79725" lon="1.57372">
        <ele>160</ele>
        <time>2019-11-17T16:20:39Z</time>
      </trkpt>
      <trkpt lat="44.79726" lon="1.57345">
        <ele>162</ele>
        <time>2019-11-17T16:20:44Z</time>
      </trkpt>
      <trkpt lat="44.79726" lon="1.57333">
        <ele>164</ele>
        <time>2019-11-17T16:20:49Z</time>
      </trkpt>
      <trkpt lat="44.7973" lon="1.57315">
        <ele>164</ele>
        <time>2019-11-17T16:20:54Z</time>
      </trkpt>
      <trkpt lat="44.79737" lon="1.5727">
        <ele>166</ele>
        <time>2019-11-17T16:20:59Z</time>
      </trkpt>
      <trkpt lat="44.7974" lon="1.57247">
        <ele>168</ele>
        <time>2019-11-17T16:21:04Z</time>
      </trkpt>
      <trkpt lat="44.79742" lon="1.57225">
        <ele>170</ele>
        <time>2019-11-17T16:21:09Z</time>
      </trkpt>
      <trkpt lat="44.79741" lon="1.57196">
        <ele>173</ele>
        <time>2019-11-17T16:21:14Z</time>
      </trkpt>
      <trkpt lat="44.79741" lon="1.5716">
        <ele>177</ele>
        <time>2019-11-17T16:21:19Z</time>
      </trkpt>
      <trkpt lat="44.7974" lon="1.57153">
        <ele>178</ele>
        <time>2019-11-17T16:21:24Z</time>
      </trkpt>
      <trkpt lat="44.79739" lon="1.57137">
        <ele>179</ele>
        <time>2019-11-17T16:21:29Z</time>
      </trkpt>
      <trkpt lat="44.79738" lon="1.57114">
        <ele>181</ele>
        <time>2019-11-17T16:21:34Z</time>
      </trkpt>
      <trkpt lat="44.79733" lon="1.57103">
        <ele>181</ele>
        <time>2019-11-17T16:21:39Z</time>
      </trkpt>
      <trkpt lat="44.79726" lon="1.57101">
        <ele>181</ele>
        <time>2019-11-17T16:21:44Z</time>
      </trkpt>
      <trkpt lat="44.79717" lon="1.57106">
        <ele>181</ele>
        <time>2019-11-17T16:21:49Z</time>
      </trkpt>
      <trkpt lat="44.79702" lon="1.57153">
        <ele>180</ele>
        <time>2019-11-17T16:21:54Z</time>
      </trkpt>
      <trkpt lat="44.79666" lon="1.57232">
        <ele>184</ele>
        <time>2019-11-17T16:21:59Z</time>
      </trkpt>
      <trkpt lat="44.79655" lon="1.57255">
        <ele>183</ele>
        <time>2019-11-17T16:22:04Z</time>
      </trkpt>
      <trkpt lat="44.7962" lon="1.57292">
        <ele>184</ele>
        <time>2019-11-17T16:22:09Z</time>
      </trkpt>
      <trkpt lat="44.79604" lon="1.57303">
        <ele>185</ele>
        <time>2019-11-17T16:22:14Z</time>
      </trkpt>
      <trkpt lat="44.79583" lon="1.5731">
        <ele>187</ele>
        <time>2019-11-17T16:22:19Z</time>
      </trkpt>
      <trkpt lat="44.79558" lon="1.57316">
        <ele>183</ele>
        <time>2019-11-17T16:22:24Z</time>
      </trkpt>
      <trkpt lat="44.79492" lon="1.57352">
        <ele>178</ele>
        <time>2019-11-17T16:22:29Z</time>
      </trkpt>
      <trkpt lat="44.79452" lon="1.57379">
        <ele>173</ele>
        <time>2019-11-17T16:22:34Z</time>
      </trkpt>
      <trkpt lat="44.79433" lon="1.574">
        <ele>173</ele>
        <time>2019-11-17T16:22:39Z</time>
      </trkpt>
      <trkpt lat="44.79414" lon="1.5743">
        <ele>174</ele>
        <time>2019-11-17T16:22:44Z</time>
      </trkpt>
      <trkpt lat="44.79411" lon="1.57436">
        <ele>174</ele>
        <time>2019-11-17T16:22:49Z</time>
      </trkpt>
      <trkpt lat="44.79379" lon="1.57494">
        <ele>172</ele>
        <time>2019-11-17T16:22:54Z</time>
      </trkpt>
      <trkpt lat="44.79363" lon="1.57516">
        <ele>169</ele>
        <time>2019-11-17T16:22:59Z</time>
      </trkpt>
      <trkpt lat="44.79314" lon="1.57591">
        <ele>164</ele>
        <time>2019-11-17T16:23:04Z</time>
      </trkpt>
      <trkpt lat="44.7929" lon="1.57625">
        <ele>161</ele>
        <time>2019-11-17T16:23:09Z</time>
      </trkpt>
      <trkpt lat="44.79252" lon="1.57682">
        <ele>155</ele>
        <time>2019-11-17T16:23:14Z</time>
      </trkpt>
      <trkpt lat="44.79233" lon="1.57708">
        <ele>152</ele>
        <time>2019-11-17T16:23:19Z</time>
      </trkpt>
      <trkpt lat="44.79218" lon="1.57726">
        <ele>150</ele>
        <time>2019-11-17T16:23:24Z</time>
      </trkpt>
      <trkpt lat="44.79171" lon="1.57778">
        <ele>141</ele>
        <time>2019-11-17T16:23:29Z</time>
      </trkpt>
      <trkpt lat="44.79152" lon="1.57803">
        <ele>138</ele>
        <time>2019-11-17T16:23:34Z</time>
      </trkpt>
      <trkpt lat="44.79146" lon="1.57813">
        <ele>138</ele>
        <time>2019-11-17T16:23:39Z</time>
      </trkpt>
      <trkpt lat="44.79142" lon="1.57817">
        <ele>137</ele>
        <time>2019-11-17T16:23:44Z</time>
      </trkpt>
      <trkpt lat="44.79135" lon="1.57835">
        <ele>136</ele>
        <time>2019-11-17T16:23:49Z</time>
      </trkpt>
      <trkpt lat="44.79132" lon="1.57849">
        <ele>136</ele>
        <time>2019-11-17T16:23:54Z</time>
      </trkpt>
      <trkpt lat="44.7913" lon="1.57873">
        <ele>135</ele>
        <time>2019-11-17T16:23:59Z</time>
      </trkpt>
      <trkpt lat="44.7913" lon="1.57897">
        <ele>135</ele>
        <time>2019-11-17T16:24:04Z</time>
      </trkpt>
      <trkpt lat="44.79132" lon="1.57931">
        <ele>136</ele>
        <time>2019-11-17T16:24:09Z</time>
      </trkpt>
      <trkpt lat="44.79142" lon="1.58027">
        <ele>136</ele>
        <time>2019-11-17T16:24:14Z</time>
      </trkpt>
      <trkpt lat="44.79141" lon="1.58069">
        <ele>134</ele>
        <time>2019-11-17T16:24:19Z</time>
      </trkpt>
      <trkpt lat="44.79141" lon="1.58084">
        <ele>133</ele>
        <time>2019-11-17T16:24:24Z</time>
      </trkpt>
      <trkpt lat="44.79142" lon="1.58102">
        <ele>133</ele>
        <time>2019-11-17T16:24:29Z</time>
      </trkpt>
      <trkpt lat="44.79145" lon="1.58119">
        <ele>133</ele>
        <time>2019-11-17T16:24:34Z</time>
      </trkpt>
      <trkpt lat="44.79139" lon="1.58125">
        <ele>131</ele>
        <time>2019-11-17T16:24:39Z</time>
      </trkpt>
      <trkpt lat="44.79136" lon="1.58143">
        <ele>129</ele>
        <time>2019-11-17T16:24:44Z</time>
      </trkpt>
      <trkpt lat="44.79135" lon="1.58157">
        <ele>128</ele>
        <time>2019-11-17T16:24:49Z</time>
      </trkpt>
      <trkpt lat="44.79137" lon="1.58169">
        <ele>128</ele>
        <time>2019-11-17T16:24:54Z</time>
      </trkpt>
      <trkpt lat="44.79138" lon="1.58177">
        <ele>128</ele>
        <time>2019-11-17T16:24:59Z</time>
      </trkpt>
      <trkpt lat="44.79138" lon="1.58222">
        <ele>126</ele>
        <time>2019-11-17T16:25:04Z</time>
      </trkpt>
      <trkpt lat="44.79137" lon="1.58234">
        <ele>125</ele>
        <time>2019-11-17T16:25:09Z</time>
      </trkpt>
      <trkpt lat="44.79134" lon="1.58248">
        <ele>124</ele>
        <time>2019-11-17T16:25:14Z</time>
      </trkpt>
      <trkpt lat="44.79133" lon="1.58261">
        <ele>124</ele>
        <time>2019-11-17T16:25:19Z</time>
      </trkpt>
      <trkpt lat="44.79137" lon="1.5827">
        <ele>125</ele>
        <time>2019-11-17T16:25:24Z</time>
      </trkpt>
      <trkpt lat="44.79137" lon="1.5828">
        <ele>126</ele>
        <time>2019-11-17T16:25:29Z</time>
      </trkpt>
      <trkpt lat="44.79127" lon="1.58295">
        <ele>124</ele>
        <time>2019-11-17T16:25:34Z</time>
      </trkpt>
      <trkpt lat="44.79124" lon="1.58303">
        <ele>124</ele>
        <time>2019-11-17T16:25:39Z</time>
      </trkpt>
      <trkpt lat="44.79118" lon="1.58314">
        <ele>123</ele>
        <time>2019-11-17T16:25:44Z</time>
      </trkpt>
      <trkpt lat="44.79112" lon="1.58328">
        <ele>123</ele>
        <time>2019-11-17T16:25:49Z</time>
      </trkpt>
      <trkpt lat="44.79098" lon="1.58352">
        <ele>121</ele>
        <time>2019-11-17T16:25:54Z</time>
      </trkpt>
      <trkpt lat="44.79092" lon="1.58363">
        <ele>120</ele>
        <time>2019-11-17T16:25:59Z</time>
      </trkpt>
      <trkpt lat="44.79085" lon="1.58368">
        <ele>119</ele>
        <time>2019-11-17T16:26:04Z</time>
      </trkpt>
      <trkpt lat="44.79077" lon="1.58376">
        <ele>119</ele>
        <time>2019-11-17T16:26:09Z</time>
      </trkpt>
      <trkpt lat="44.79064" lon="1.58394">
        <ele>121</ele>
        <time>2019-11-17T16:26:14Z</time>
      </trkpt>
      <trkpt lat="44.7905" lon="1.58391">
        <ele>122</ele>
        <time>2019-11-17T16:26:19Z</time>
      </trkpt>
      <trkpt lat="44.79018" lon="1.58392">
        <ele>125</ele>
        <time>2019-11-17T16:26:24Z</time>
      </trkpt>
      <trkpt lat="44.79038" lon="1.58404">
        <ele>123</ele>
        <time>2019-11-17T16:26:29Z</time>
      </trkpt>
      <trkpt lat="44.79046" lon="1.58402">
        <ele>122</ele>
        <time>2019-11-17T16:26:34Z</time>
      </trkpt>
      <trkpt lat="44.79066" lon="1.58417">
        <ele>121</ele>
        <time>2019-11-17T16:26:39Z</time>
      </trkpt>
      <trkpt lat="44.79074" lon="1.58421">
        <ele>121</ele>
        <time>2019-11-17T16:26:44Z</time>
      </trkpt>
      <trkpt lat="44.79091" lon="1.58434">
        <ele>122</ele>
        <time>2019-11-17T16:26:49Z</time>
      </trkpt>
      <trkpt lat="44.79104" lon="1.58442">
        <ele>124</ele>
        <time>2019-11-17T16:26:54Z</time>
      </trkpt>
      <trkpt lat="44.79119" lon="1.58454">
        <ele>127</ele>
        <time>2019-11-17T16:26:59Z</time>
      </trkpt>
      <trkpt lat="44.79133" lon="1.58467">
        <ele>129</ele>
        <time>2019-11-17T16:27:04Z</time>
      </trkpt>
      <trkpt lat="44.79148" lon="1.58494">
        <ele>130</ele>
        <time>2019-11-17T16:27:09Z</time>
      </trkpt>
      <trkpt lat="44.79158" lon="1.58514">
        <ele>130</ele>
        <time>2019-11-17T16:27:14Z</time>
      </trkpt>
      <trkpt lat="44.79166" lon="1.58524">
        <ele>130</ele>
        <time>2019-11-17T16:27:19Z</time>
      </trkpt>
      <trkpt lat="44.79174" lon="1.58537">
        <ele>131</ele>
        <time>2019-11-17T16:27:24Z</time>
      </trkpt>
      <trkpt lat="44.79182" lon="1.58546">
        <ele>133</ele>
        <time>2019-11-17T16:27:29Z</time>
      </trkpt>
      <trkpt lat="44.79191" lon="1.58552">
        <ele>135</ele>
        <time>2019-11-17T16:27:34Z</time>
      </trkpt>
      <trkpt lat="44.79199" lon="1.58555">
        <ele>137</ele>
        <time>2019-11-17T16:27:39Z</time>
      </trkpt>
      <trkpt lat="44.79207" lon="1.5856">
        <ele>139</ele>
        <time>2019-11-17T16:27:44Z</time>
      </trkpt>
      <trkpt lat="44.79212" lon="1.58565">
        <ele>140</ele>
        <time>2019-11-17T16:27:49Z</time>
      </trkpt>
      <trkpt lat="44.79224" lon="1.58584">
        <ele>142</ele>
        <time>2019-11-17T16:27:54Z</time>
      </trkpt>
      <trkpt lat="44.79231" lon="1.58593">
        <ele>143</ele>
        <time>2019-11-17T16:27:59Z</time>
      </trkpt>
      <trkpt lat="44.79242" lon="1.58628">
        <ele>143</ele>
        <time>2019-11-17T16:28:04Z</time>
      </trkpt>
      <trkpt lat="44.79245" lon="1.5864">
        <ele>143</ele>
        <time>2019-11-17T16:28:09Z</time>
      </trkpt>
      <trkpt lat="44.79251" lon="1.58678">
        <ele>142</ele>
        <time>2019-11-17T16:28:14Z</time>
      </trkpt>
      <trkpt lat="44.79253" lon="1.58688">
        <ele>142</ele>
        <time>2019-11-17T16:28:19Z</time>
      </trkpt>
      <trkpt lat="44.79259" lon="1.58722">
        <ele>143</ele>
        <time>2019-11-17T16:28:24Z</time>
      </trkpt>
      <trkpt lat="44.79264" lon="1.58763">
        <ele>144</ele>
        <time>2019-11-17T16:28:29Z</time>
      </trkpt>
      <trkpt lat="44.79266" lon="1.58776">
        <ele>145</ele>
        <time>2019-11-17T16:28:34Z</time>
      </trkpt>
      <trkpt lat="44.79268" lon="1.58806">
        <ele>147</ele>
        <time>2019-11-17T16:28:39Z</time>
      </trkpt>
      <trkpt lat="44.7927" lon="1.58822">
        <ele>148</ele>
        <time>2019-11-17T16:28:44Z</time>
      </trkpt>
      <trkpt lat="44.79273" lon="1.58854">
        <ele>149</ele>
        <time>2019-11-17T16:28:49Z</time>
      </trkpt>
      <trkpt lat="44.79275" lon="1.58889">
        <ele>150</ele>
        <time>2019-11-17T16:28:54Z</time>
      </trkpt>
      <trkpt lat="44.79275" lon="1.58947">
        <ele>150</ele>
        <time>2019-11-17T16:28:59Z</time>
      </trkpt>
      <trkpt lat="44.79276" lon="1.58962">
        <ele>150</ele>
        <time>2019-11-17T16:29:04Z</time>
      </trkpt>
      <trkpt lat="44.7928" lon="1.58996">
        <ele>151</ele>
        <time>2019-11-17T16:29:09Z</time>
      </trkpt>
      <trkpt lat="44.79281" lon="1.59009">
        <ele>151</ele>
        <time>2019-11-17T16:29:14Z</time>
      </trkpt>
      <trkpt lat="44.79281" lon="1.59023">
        <ele>151</ele>
        <time>2019-11-17T16:29:19Z</time>
      </trkpt>
      <trkpt lat="44.79276" lon="1.59101">
        <ele>150</ele>
        <time>2019-11-17T16:29:24Z</time>
      </trkpt>
      <trkpt lat="44.79279" lon="1.59112">
        <ele>150</ele>
        <time>2019-11-17T16:29:29Z</time>
      </trkpt>
      <trkpt lat="44.79281" lon="1.59124">
        <ele>150</ele>
        <time>2019-11-17T16:29:34Z</time>
      </trkpt>
      <trkpt lat="44.79284" lon="1.59138">
        <ele>150</ele>
        <time>2019-11-17T16:29:39Z</time>
      </trkpt>
      <trkpt lat="44.79286" lon="1.5915">
        <ele>149</ele>
        <time>2019-11-17T16:29:44Z</time>
      </trkpt>
      <trkpt lat="44.79285" lon="1.59161">
        <ele>149</ele>
        <time>2019-11-17T16:29:49Z</time>
      </trkpt>
      <trkpt lat="44.79283" lon="1.59177">
        <ele>149</ele>
        <time>2019-11-17T16:29:54Z</time>
      </trkpt>
      <trkpt lat="44.79276" lon="1.59198">
        <ele>150</ele>
        <time>2019-11-17T16:29:59Z</time>
      </trkpt>
      <trkpt lat="44.79268" lon="1.59231">
        <ele>152</ele>
        <time>2019-11-17T16:30:04Z</time>
      </trkpt>
      <trkpt lat="44.79264" lon="1.59248">
        <ele>153</ele>
        <time>2019-11-17T16:30:09Z</time>
      </trkpt>
      <trkpt lat="44.79257" lon="1.59284">
        <ele>155</ele>
        <time>2019-11-17T16:30:14Z</time>
      </trkpt>
      <trkpt lat="44.79256" lon="1.59327">
        <ele>155</ele>
        <time>2019-11-17T16:30:19Z</time>
      </trkpt>
      <trkpt lat="44.79262" lon="1.59399">
        <ele>159</ele>
        <time>2019-11-17T16:30:24Z</time>
      </trkpt>
      <trkpt lat="44.79267" lon="1.59421">
        <ele>159</ele>
        <time>2019-11-17T16:30:29Z</time>
      </trkpt>
      <trkpt lat="44.79274" lon="1.59447">
        <ele>159</ele>
        <time>2019-11-17T16:30:34Z</time>
      </trkpt>
      <trkpt lat="44.79282" lon="1.59462">
        <ele>158</ele>
        <time>2019-11-17T16:30:39Z</time>
      </trkpt>
      <trkpt lat="44.79293" lon="1.59482">
        <ele>155</ele>
        <time>2019-11-17T16:30:44Z</time>
      </trkpt>
      <trkpt lat="44.79317" lon="1.59536">
        <ele>153</ele>
        <time>2019-11-17T16:30:49Z</time>
      </trkpt>
      <trkpt lat="44.79323" lon="1.59547">
        <ele>153</ele>
        <time>2019-11-17T16:30:54Z</time>
      </trkpt>
      <trkpt lat="44.79333" lon="1.5956">
        <ele>155</ele>
        <time>2019-11-17T16:30:59Z</time>
      </trkpt>
      <trkpt lat="44.79356" lon="1.59577">
        <ele>149</ele>
        <time>2019-11-17T16:31:04Z</time>
      </trkpt>
      <trkpt lat="44.79375" lon="1.59599">
        <ele>149</ele>
        <time>2019-11-17T16:31:09Z</time>
      </trkpt>
      <trkpt lat="44.79401" lon="1.59619">
        <ele>148</ele>
        <time>2019-11-17T16:31:14Z</time>
      </trkpt>
      <trkpt lat="44.79412" lon="1.5962">
        <ele>145</ele>
        <time>2019-11-17T16:31:19Z</time>
      </trkpt>
      <trkpt lat="44.79422" lon="1.59611">
        <ele>142</ele>
        <time>2019-11-17T16:31:24Z</time>
      </trkpt>
      <trkpt lat="44.79439" lon="1.59591">
        <ele>140</ele>
        <time>2019-11-17T16:31:29Z</time>
      </trkpt>
      <trkpt lat="44.79454" lon="1.59574">
        <ele>142</ele>
        <time>2019-11-17T16:31:34Z</time>
      </trkpt>
      <trkpt lat="44.79461" lon="1.59573">
        <ele>144</ele>
        <time>2019-11-17T16:31:39Z</time>
      </trkpt>
      <trkpt lat="44.79469" lon="1.5958">
        <ele>144</ele>
        <time>2019-11-17T16:31:44Z</time>
      </trkpt>
      <trkpt lat="44.7949" lon="1.59595">
        <ele>146</ele>
        <time>2019-11-17T16:31:49Z</time>
      </trkpt>
      <trkpt lat="44.79519" lon="1.5961">
        <ele>151</ele>
        <time>2019-11-17T16:31:54Z</time>
      </trkpt>
      <trkpt lat="44.79543" lon="1.5963">
        <ele>153</ele>
        <time>2019-11-17T16:31:59Z</time>
      </trkpt>
      <trkpt lat="44.79554" lon="1.59641">
        <ele>153</ele>
        <time>2019-11-17T16:32:04Z</time>
      </trkpt>
      <trkpt lat="44.79583" lon="1.59673">
        <ele>150</ele>
        <time>2019-11-17T16:32:09Z</time>
      </trkpt>
      <trkpt lat="44.79604" lon="1.59695">
        <ele>157</ele>
        <time>2019-11-17T16:32:14Z</time>
      </trkpt>
      <trkpt lat="44.79613" lon="1.59715">
        <ele>158</ele>
        <time>2019-11-17T16:32:19Z</time>
      </trkpt>
      <trkpt lat="44.79619" lon="1.59733">
        <ele>158</ele>
        <time>2019-11-17T16:32:24Z</time>
      </trkpt>
      <trkpt lat="44.79623" lon="1.5975">
        <ele>157</ele>
        <time>2019-11-17T16:32:29Z</time>
      </trkpt>
      <trkpt lat="44.79624" lon="1.59764">
        <ele>158</ele>
        <time>2019-11-17T16:32:34Z</time>
      </trkpt>
      <trkpt lat="44.79625" lon="1.59776">
        <ele>158</ele>
        <time>2019-11-17T16:32:39Z</time>
      </trkpt>
      <trkpt lat="44.79622" lon="1.59802">
        <ele>157</ele>
        <time>2019-11-17T16:32:44Z</time>
      </trkpt>
      <trkpt lat="44.79612" lon="1.59832">
        <ele>152</ele>
        <time>2019-11-17T16:32:49Z</time>
      </trkpt>
      <trkpt lat="44.79601" lon="1.59857">
        <ele>153</ele>
        <time>2019-11-17T16:32:54Z</time>
      </trkpt>
      <trkpt lat="44.79583" lon="1.5988">
        <ele>151</ele>
        <time>2019-11-17T16:32:59Z</time>
      </trkpt>
      <trkpt lat="44.79568" lon="1.59893">
        <ele>153</ele>
        <time>2019-11-17T16:33:04Z</time>
      </trkpt>
      <trkpt lat="44.79558" lon="1.59902">
        <ele>153</ele>
        <time>2019-11-17T16:33:09Z</time>
      </trkpt>
      <trkpt lat="44.79544" lon="1.59911">
        <ele>151</ele>
        <time>2019-11-17T16:33:14Z</time>
      </trkpt>
      <trkpt lat="44.79535" lon="1.59919">
        <ele>150</ele>
        <time>2019-11-17T16:33:19Z</time>
      </trkpt>
      <trkpt lat="44.79525" lon="1.59926">
        <ele>150</ele>
        <time>2019-11-17T16:33:24Z</time>
      </trkpt>
      <trkpt lat="44.79516" lon="1.59931">
        <ele>148</ele>
        <time>2019-11-17T16:33:29Z</time>
      </trkpt>
      <trkpt lat="44.79496" lon="1.59943">
        <ele>146</ele>
        <time>2019-11-17T16:33:34Z</time>
      </trkpt>
      <trkpt lat="44.79481" lon="1.59951">
        <ele>147</ele>
        <time>2019-11-17T16:33:39Z</time>
      </trkpt>
      <trkpt lat="44.79468" lon="1.59959">
        <ele>147</ele>
        <time>2019-11-17T16:33:44Z</time>
      </trkpt>
      <trkpt lat="44.79462" lon="1.59967">
        <ele>147</ele>
        <time>2019-11-17T16:33:49Z</time>
      </trkpt>
      <trkpt lat="44.79451" lon="1.59983">
        <ele>146</ele>
        <time>2019-11-17T16:33:54Z</time>
      </trkpt>
      <trkpt lat="44.79439" lon="1.60006">
        <ele>144</ele>
        <time>2019-11-17T16:33:59Z</time>
      </trkpt>
      <trkpt lat="44.79431" lon="1.60025">
        <ele>143</ele>
        <time>2019-11-17T16:34:04Z</time>
      </trkpt>
      <trkpt lat="44.79428" lon="1.60058">
        <ele>143</ele>
        <time>2019-11-17T16:34:09Z</time>
      </trkpt>
      <trkpt lat="44.79427" lon="1.60092">
        <ele>144</ele>
        <time>2019-11-17T16:34:14Z</time>
      </trkpt>
      <trkpt lat="44.79428" lon="1.60112">
        <ele>143</ele>
        <time>2019-11-17T16:34:19Z</time>
      </trkpt>
      <trkpt lat="44.79433" lon="1.60122">
        <ele>144</ele>
        <time>2019-11-17T16:34:24Z</time>
      </trkpt>
      <trkpt lat="44.79444" lon="1.60139">
        <ele>146</ele>
        <time>2019-11-17T16:34:29Z</time>
      </trkpt>
      <trkpt lat="44.79457" lon="1.60162">
        <ele>147</ele>
        <time>2019-11-17T16:34:34Z</time>
      </trkpt>
      <trkpt lat="44.79487" lon="1.60236">
        <ele>146</ele>
        <time>2019-11-17T16:34:39Z</time>
      </trkpt>
      <trkpt lat="44.79501" lon="1.60262">
        <ele>142</ele>
        <time>2019-11-17T16:34:44Z</time>
      </trkpt>
      <trkpt lat="44.79514" lon="1.60281">
        <ele>147</ele>
        <time>2019-11-17T16:34:49Z</time>
      </trkpt>
      <trkpt lat="44.79534" lon="1.60317">
        <ele>151</ele>
        <time>2019-11-17T16:34:54Z</time>
      </trkpt>
      <trkpt lat="44.79548" lon="1.60341">
        <ele>153</ele>
        <time>2019-11-17T16:34:59Z</time>
      </trkpt>
      <trkpt lat="44.79564" lon="1.60371">
        <ele>153</ele>
        <time>2019-11-17T16:35:04Z</time>
      </trkpt>
      <trkpt lat="44.79575" lon="1.60397">
        <ele>151</ele>
        <time>2019-11-17T16:35:09Z</time>
      </trkpt>
      <trkpt lat="44.79578" lon="1.60413">
        <ele>148</ele>
        <time>2019-11-17T16:35:14Z</time>
      </trkpt>
      <trkpt lat="44.79579" lon="1.6043">
        <ele>148</ele>
        <time>2019-11-17T16:35:19Z</time>
      </trkpt>
      <trkpt lat="44.79575" lon="1.60451">
        <ele>147</ele>
        <time>2019-11-17T16:35:24Z</time>
      </trkpt>
      <trkpt lat="44.79569" lon="1.60484">
        <ele>147</ele>
        <time>2019-11-17T16:35:29Z</time>
      </trkpt>
      <trkpt lat="44.79562" lon="1.60513">
        <ele>149</ele>
        <time>2019-11-17T16:35:34Z</time>
      </trkpt>
      <trkpt lat="44.79534" lon="1.60577">
        <ele>150</ele>
        <time>2019-11-17T16:35:39Z</time>
      </trkpt>
      <trkpt lat="44.79519" lon="1.6061">
        <ele>147</ele>
        <time>2019-11-17T16:35:44Z</time>
      </trkpt>
      <trkpt lat="44.79504" lon="1.60649">
        <ele>143</ele>
        <time>2019-11-17T16:35:49Z</time>
      </trkpt>
      <trkpt lat="44.79497" lon="1.60678">
        <ele>143</ele>
        <time>2019-11-17T16:35:54Z</time>
      </trkpt>
      <trkpt lat="44.79495" lon="1.60697">
        <ele>143</ele>
        <time>2019-11-17T16:35:59Z</time>
      </trkpt>
      <trkpt lat="44.79494" lon="1.60714">
        <ele>143</ele>
        <time>2019-11-17T16:36:04Z</time>
      </trkpt>
      <trkpt lat="44.79496" lon="1.60729">
        <ele>142</ele>
        <time>2019-11-17T16:36:09Z</time>
      </trkpt>
      <trkpt lat="44.79499" lon="1.60743">
        <ele>141</ele>
        <time>2019-11-17T16:36:14Z</time>
      </trkpt>
      <trkpt lat="44.79507" lon="1.60767">
        <ele>143</ele>
        <time>2019-11-17T16:36:19Z</time>
      </trkpt>
      <trkpt lat="44.79516" lon="1.60782">
        <ele>146</ele>
        <time>2019-11-17T16:36:24Z</time>
      </trkpt>
      <trkpt lat="44.7953" lon="1.60797">
        <ele>149</ele>
        <time>2019-11-17T16:36:29Z</time>
      </trkpt>
      <trkpt lat="44.79573" lon="1.60833">
        <ele>152</ele>
        <time>2019-11-17T16:36:34Z</time>
      </trkpt>
      <trkpt lat="44.79606" lon="1.60869">
        <ele>156</ele>
        <time>2019-11-17T16:36:39Z</time>
      </trkpt>
      <trkpt lat="44.7963" lon="1.60892">
        <ele>158</ele>
        <time>2019-11-17T16:36:44Z</time>
      </trkpt>
      <trkpt lat="44.79643" lon="1.60908">
        <ele>156</ele>
        <time>2019-11-17T16:36:49Z</time>
      </trkpt>
      <trkpt lat="44.7968" lon="1.60956">
        <ele>155</ele>
        <time>2019-11-17T16:36:54Z</time>
      </trkpt>
      <trkpt lat="44.79703" lon="1.60988">
        <ele>154</ele>
        <time>2019-11-17T16:36:59Z</time>
      </trkpt>
      <trkpt lat="44.79716" lon="1.61007">
        <ele>154</ele>
        <time>2019-11-17T16:37:04Z</time>
      </trkpt>
      <trkpt lat="44.79722" lon="1.61017">
        <ele>155</ele>
        <time>2019-11-17T16:37:09Z</time>
      </trkpt>
      <trkpt lat="44.79725" lon="1.61024">
        <ele>156</ele>
        <time>2019-11-17T16:37:14Z</time>
      </trkpt>
      <trkpt lat="44.79725" lon="1.61046">
        <ele>156</ele>
        <time>2019-11-17T16:37:19Z</time>
      </trkpt>
      <trkpt lat="44.79714" lon="1.61085">
        <ele>153</ele>
        <time>2019-11-17T16:37:24Z</time>
      </trkpt>
      <trkpt lat="44.79699" lon="1.61164">
        <ele>153</ele>
        <time>2019-11-17T16:37:29Z</time>
      </trkpt>
      <trkpt lat="44.79686" lon="1.61224">
        <ele>152</ele>
        <time>2019-11-17T16:37:34Z</time>
      </trkpt>
      <trkpt lat="44.79663" lon="1.61267">
        <ele>147</ele>
        <time>2019-11-17T16:37:39Z</time>
      </trkpt>
      <trkpt lat="44.79635" lon="1.61321">
        <ele>153</ele>
        <time>2019-11-17T16:37:44Z</time>
      </trkpt>
      <trkpt lat="44.79622" lon="1.61353">
        <ele>151</ele>
        <time>2019-11-17T16:37:49Z</time>
      </trkpt>
      <trkpt lat="44.79617" lon="1.61392">
        <ele>152</ele>
        <time>2019-11-17T16:37:54Z</time>
      </trkpt>
      <trkpt lat="44.79622" lon="1.61437">
        <ele>153</ele>
        <time>2019-11-17T16:37:59Z</time>
      </trkpt>
      <trkpt lat="44.79642" lon="1.61495">
        <ele>155</ele>
        <time>2019-11-17T16:38:04Z</time>
      </trkpt>
      <trkpt lat="44.7969" lon="1.61616">
        <ele>150</ele>
        <time>2019-11-17T16:38:09Z</time>
      </trkpt>
      <trkpt lat="44.797" lon="1.61609">
        <ele>154</ele>
        <time>2019-11-17T16:38:14Z</time>
      </trkpt>
      <trkpt lat="44.79714" lon="1.61621">
        <ele>158</ele>
        <time>2019-11-17T16:38:19Z</time>
      </trkpt>
      <trkpt lat="44.79746" lon="1.61647">
        <ele>161</ele>
        <time>2019-11-17T16:38:24Z</time>
      </trkpt>
      <trkpt lat="44.79773" lon="1.61687">
        <ele>167</ele>
        <time>2019-11-17T16:38:29Z</time>
      </trkpt>
      <trkpt lat="44.79792" lon="1.61702">
        <ele>172</ele>
        <time>2019-11-17T16:38:34Z</time>
      </trkpt>
      <trkpt lat="44.79814" lon="1.61714">
        <ele>177</ele>
        <time>2019-11-17T16:38:39Z</time>
      </trkpt>
      <trkpt lat="44.79837" lon="1.61738">
        <ele>173</ele>
        <time>2019-11-17T16:38:44Z</time>
      </trkpt>
      <trkpt lat="44.79856" lon="1.61755">
        <ele>177</ele>
        <time>2019-11-17T16:38:49Z</time>
      </trkpt>
      <trkpt lat="44.79886" lon="1.61776">
        <ele>185</ele>
        <time>2019-11-17T16:38:54Z</time>
      </trkpt>
      <trkpt lat="44.79887" lon="1.61768">
        <ele>190</ele>
        <time>2019-11-17T16:38:59Z</time>
      </trkpt>
      <trkpt lat="44.79891" lon="1.61772">
        <ele>190</ele>
        <time>2019-11-17T16:39:04Z</time>
      </trkpt>
      <trkpt lat="44.799" lon="1.61774">
        <ele>193</ele>
        <time>2019-11-17T16:39:09Z</time>
      </trkpt>
      <trkpt lat="44.7992" lon="1.61776">
        <ele>201</ele>
        <time>2019-11-17T16:39:14Z</time>
      </trkpt>
      <trkpt lat="44.7992" lon="1.61766">
        <ele>208</ele>
        <time>2019-11-17T16:39:19Z</time>
      </trkpt>
      <trkpt lat="44.79915" lon="1.61763">
        <ele>208</ele>
        <time>2019-11-17T16:39:24Z</time>
      </trkpt>
      <trkpt lat="44.79902" lon="1.61761">
        <ele>202</ele>
        <time>2019-11-17T16:39:29Z</time>
      </trkpt>
      <trkpt lat="44.79903" lon="1.61751">
        <ele>209</ele>
        <time>2019-11-17T16:39:34Z</time>
      </trkpt>
      <trkpt lat="44.79915" lon="1.61754">
        <ele>214</ele>
        <time>2019-11-17T16:39:39Z</time>
      </trkpt>
      <trkpt lat="44.79934" lon="1.61761">
        <ele>213</ele>
        <time>2019-11-17T16:39:44Z</time>
      </trkpt>
      <trkpt lat="44.7994" lon="1.61772">
        <ele>206</ele>
        <time>2019-11-17T16:39:49Z</time>
      </trkpt>
      <trkpt lat="44.79941" lon="1.61741">
        <ele>225</ele>
        <time>2019-11-17T16:39:54Z</time>
      </trkpt>
      <trkpt lat="44.79944" lon="1.61771">
        <ele>207</ele>
        <time>2019-11-17T16:39:59Z</time>
      </trkpt>
      <trkpt lat="44.79969" lon="1.61774">
        <ele>209</ele>
        <time>2019-11-17T16:40:04Z</time>
      </trkpt>
      <trkpt lat="44.79973" lon="1.61762">
        <ele>217</ele>
        <time>2019-11-17T16:40:09Z</time>
      </trkpt>
      <trkpt lat="44.79993" lon="1.61754">
        <ele>224</ele>
        <time>2019-11-17T16:40:14Z</time>
      </trkpt>
      <trkpt lat="44.79972" lon="1.61749">
        <ele>224</ele>
        <time>2019-11-17T16:40:19Z</time>
      </trkpt>
      <trkpt lat="44.80006" lon="1.61734">
        <ele>234</ele>
        <time>2019-11-17T16:40:24Z</time>
      </trkpt>
      <trkpt lat="44.79981" lon="1.61737">
        <ele>230</ele>
        <time>2019-11-17T16:40:29Z</time>
      </trkpt>
      <trkpt lat="44.80018" lon="1.61703">
        <ele>248</ele>
        <time>2019-11-17T16:40:34Z</time>
      </trkpt>
      <trkpt lat="44.79989" lon="1.61705">
        <ele>244</ele>
        <time>2019-11-17T16:40:39Z</time>
      </trkpt>
      <trkpt lat="44.80021" lon="1.61685">
        <ele>254</ele>
        <time>2019-11-17T16:40:44Z</time>
      </trkpt>
      <trkpt lat="44.80049" lon="1.61676">
        <ele>259</ele>
        <time>2019-11-17T16:40:49Z</time>
      </trkpt>
      <trkpt lat="44.80049" lon="1.61665">
        <ele>262</ele>
        <time>2019-11-17T16:40:54Z</time>
      </trkpt>
      <trkpt lat="44.80001" lon="1.6167">
        <ele>259</ele>
        <time>2019-11-17T16:40:59Z</time>
      </trkpt>
      <trkpt lat="44.79997" lon="1.61636">
        <ele>261</ele>
        <time>2019-11-17T16:41:04Z</time>
      </trkpt>
      <trkpt lat="44.79994" lon="1.61626">
        <ele>262</ele>
        <time>2019-11-17T16:41:09Z</time>
      </trkpt>
      <trkpt lat="44.79989" lon="1.61621">
        <ele>262</ele>
        <time>2019-11-17T16:41:14Z</time>
      </trkpt>
      <trkpt lat="44.79989" lon="1.6161">
        <ele>262</ele>
        <time>2019-11-17T16:41:19Z</time>
      </trkpt>
    </trkseg>
  </trk>
  <trk>
    <name><![CDATA[RocamadourOuest_2]]></name>
    <trkseg>
      <trkpt lat="44.79292" lon="1.59096">
        <ele>150.7</ele>
      </trkpt>
      <trkpt lat="44.79405" lon="1.59002">
        <ele>166.6</ele>
      </trkpt>
      <trkpt lat="44.79495" lon="1.5901">
        <ele>158.3</ele>
      </trkpt>
      <trkpt lat="44.79547" lon="1.58961">
        <ele>159.1</ele>
      </trkpt>
      <trkpt lat="44.79563" lon="1.59038">
        <ele>140.8</ele>
      </trkpt>
      <trkpt lat="44.79583" lon="1.58959">
        <ele>155</ele>
      </trkpt>
      <trkpt lat="44.79624" lon="1.58939">
        <ele>143</ele>
      </trkpt>
      <trkpt lat="44.79665" lon="1.58952">
        <ele>140.1</ele>
      </trkpt>
      <trkpt lat="44.79705" lon="1.58967">
        <ele>135.2</ele>
      </trkpt>
      <trkpt lat="44.79763" lon="1.58944">
        <ele>135.6</ele>
      </trkpt>
      <trkpt lat="44.79818" lon="1.58961">
        <ele>135.9</ele>
      </trkpt>
      <trkpt lat="44.79923" lon="1.58942">
        <ele>138</ele>
      </trkpt>
      <trkpt lat="44.7994" lon="1.58939">
        <ele>138.9</ele>
      </trkpt>
      <trkpt lat="44.79966" lon="1.58922">
        <ele>138.8</ele>
      </trkpt>
      <trkpt lat="44.79986" lon="1.58891">
        <ele>133</ele>
      </trkpt>
      <trkpt lat="44.79987" lon="1.58889">
        <ele>133</ele>
      </trkpt>
      <trkpt lat="44.79989" lon="1.58801">
        <ele>131.4</ele>
      </trkpt>
      <trkpt lat="44.8" lon="1.58807">
        <ele>131.5</ele>
      </trkpt>
      <trkpt lat="44.80009" lon="1.5886">
        <ele>139.7</ele>
      </trkpt>
      <trkpt lat="44.80057" lon="1.58922">
        <ele>151.1</ele>
      </trkpt>
      <trkpt lat="44.80134" lon="1.58984">
        <ele>168.1</ele>
      </trkpt>
      <trkpt lat="44.80161" lon="1.59006">
        <ele>173.9</ele>
      </trkpt>
      <trkpt lat="44.80194" lon="1.59015">
        <ele>181.1</ele>
      </trkpt>
      <trkpt lat="44.80199" lon="1.59017">
        <ele>181.9</ele>
      </trkpt>
      <trkpt lat="44.80213" lon="1.59019">
        <ele>183.5</ele>
      </trkpt>
      <trkpt lat="44.80219" lon="1.59027">
        <ele>184.1</ele>
      </trkpt>
      <trkpt lat="44.80223" lon="1.59036">
        <ele>184.3</ele>
      </trkpt>
      <trkpt lat="44.80226" lon="1.59046">
        <ele>184.4</ele>
      </trkpt>
      <trkpt lat="44.80233" lon="1.5905">
        <ele>184.5</ele>
      </trkpt>
      <trkpt lat="44.80272" lon="1.59084">
        <ele>193.6</ele>
      </trkpt>
      <trkpt lat="44.80315" lon="1.59108">
        <ele>200.6</ele>
      </trkpt>
      <trkpt lat="44.80346" lon="1.59104">
        <ele>208.3</ele>
      </trkpt>
      <trkpt lat="44.80367" lon="1.59101">
        <ele>210.9</ele>
      </trkpt>
      <trkpt lat="44.80422" lon="1.59107">
        <ele>222.3</ele>
      </trkpt>
      <trkpt lat="44.80362" lon="1.59024">
        <ele>211.6</ele>
      </trkpt>
      <trkpt lat="44.80463" lon="1.59063">
        <ele>221.9</ele>
      </trkpt>
      <trkpt lat="44.8055" lon="1.5907">
        <ele>225.1</ele>
      </trkpt>
      <trkpt lat="44.80604" lon="1.59098">
        <ele>231.5</ele>
      </trkpt>
      <trkpt lat="44.80604" lon="1.59103">
        <ele>231.6</ele>
      </trkpt>
    </trkseg>
  </trk>
</gpx>